sensor_id;sensor_type;location;lat;lon;timestamp;temperature;humidity
23560;DHT22;11958;50.836;4.438;2022-11-20T00:05:12;5.10;85.80
23560;DHT22;11958;50.836;4.438;2022-11-20T00:07:41;4.80;85.60
23560;DHT22;11958;50.836;4.438;2022-11-20T00:21:59;4.70;86.80
23560;DHT22;11958;50.836;4.438;2022-11-20T00:27:48;4.60;86.10
23560;DHT22;11958;50.836;4.438;2022-11-20T00:41:22;4.50;86.90
23560;DHT22;11958;50.836;4.438;2022-11-20T00:57:33;4.50;87.50
23560;DHT22;11958;50.836;4.438;2022-11-20T01:00:29;4.30;87.80
23560;DHT22;11958;50.836;4.438;2022-11-20T01:03:10;4.20;87.50
23560;DHT22;11958;50.836;4.438;2022-11-20T01:05:46;4.80;87.10
23560;DHT22;11958;50.836;4.438;2022-11-20T01:11:16;4.80;85.30
23560;DHT22;11958;50.836;4.438;2022-11-20T01:13:51;4.50;86.70
23560;DHT22;11958;50.836;4.438;2022-11-20T01:19:25;4.20;87.60
23560;DHT22;11958;50.836;4.438;2022-11-20T01:22:04;4.80;86.20
23560;DHT22;11958;50.836;4.438;2022-11-20T01:28:08;4.60;86.90
23560;DHT22;11958;50.836;4.438;2022-11-20T01:30:53;4.60;87.30
23560;DHT22;11958;50.836;4.438;2022-11-20T01:33:50;4.50;87.10
23560;DHT22;11958;50.836;4.438;2022-11-20T01:36:53;4.60;86.90
23560;DHT22;11958;50.836;4.438;2022-11-20T01:39:34;4.50;87.00
23560;DHT22;11958;50.836;4.438;2022-11-20T01:42:38;4.70;87.20
23560;DHT22;11958;50.836;4.438;2022-11-20T01:48:17;4.50;87.50
23560;DHT22;11958;50.836;4.438;2022-11-20T02:03:23;4.50;87.80
23560;DHT22;11958;50.836;4.438;2022-11-20T02:12:46;4.70;86.60
23560;DHT22;11958;50.836;4.438;2022-11-20T02:25:35;4.70;87.60
23560;DHT22;11958;50.836;4.438;2022-11-20T02:28:20;4.70;87.90
23560;DHT22;11958;50.836;4.438;2022-11-20T02:30:59;4.90;87.50
23560;DHT22;11958;50.836;4.438;2022-11-20T02:33:59;4.60;88.00
23560;DHT22;11958;50.836;4.438;2022-11-20T02:39:37;4.50;88.30
23560;DHT22;11958;50.836;4.438;2022-11-20T02:42:21;4.60;88.40
23560;DHT22;11958;50.836;4.438;2022-11-20T02:48:44;5.10;87.80
23560;DHT22;11958;50.836;4.438;2022-11-20T02:51:33;5.00;87.40
23560;DHT22;11958;50.836;4.438;2022-11-20T03:04:18;4.90;87.80
23560;DHT22;11958;50.836;4.438;2022-11-20T03:06:56;5.40;86.50
23560;DHT22;11958;50.836;4.438;2022-11-20T03:09:37;5.40;87.00
23560;DHT22;11958;50.836;4.438;2022-11-20T03:12:21;5.30;87.00
23560;DHT22;11958;50.836;4.438;2022-11-20T03:15:28;5.30;87.50
23560;DHT22;11958;50.836;4.438;2022-11-20T03:18:27;5.00;88.20
23560;DHT22;11958;50.836;4.438;2022-11-20T03:21:03;5.00;88.60
23560;DHT22;11958;50.836;4.438;2022-11-20T03:23:32;4.90;88.00
23560;DHT22;11958;50.836;4.438;2022-11-20T03:31:20;5.20;87.00
23560;DHT22;11958;50.836;4.438;2022-11-20T03:34:21;5.10;87.20
23560;DHT22;11958;50.836;4.438;2022-11-20T03:37:11;5.10;86.60
23560;DHT22;11958;50.836;4.438;2022-11-20T03:43:29;5.00;85.40
23560;DHT22;11958;50.836;4.438;2022-11-20T03:45:57;5.20;86.40
23560;DHT22;11958;50.836;4.438;2022-11-20T03:48:55;5.40;86.20
23560;DHT22;11958;50.836;4.438;2022-11-20T03:54:31;5.30;85.20
23560;DHT22;11958;50.836;4.438;2022-11-20T03:57:10;5.30;85.00
23560;DHT22;11958;50.836;4.438;2022-11-20T04:00:12;5.10;84.10
23560;DHT22;11958;50.836;4.438;2022-11-20T04:09:46;5.60;84.10
23560;DHT22;11958;50.836;4.438;2022-11-20T04:12:12;5.40;83.70
23560;DHT22;11958;50.836;4.438;2022-11-20T04:14:37;5.10;86.20
23560;DHT22;11958;50.836;4.438;2022-11-20T04:17:04;5.20;85.90
23560;DHT22;11958;50.836;4.438;2022-11-20T04:19:30;5.20;85.90
23560;DHT22;11958;50.836;4.438;2022-11-20T04:21:55;5.50;85.50
23560;DHT22;11958;50.836;4.438;2022-11-20T04:24:21;5.50;85.20
23560;DHT22;11958;50.836;4.438;2022-11-20T04:26:46;5.70;85.10
23560;DHT22;11958;50.836;4.438;2022-11-20T04:29:12;5.70;83.80
23560;DHT22;11958;50.836;4.438;2022-11-20T04:31:38;5.60;85.10
23560;DHT22;11958;50.836;4.438;2022-11-20T04:34:06;5.60;85.20
23560;DHT22;11958;50.836;4.438;2022-11-20T04:36:32;5.50;84.60
23560;DHT22;11958;50.836;4.438;2022-11-20T04:39:00;5.50;85.20
23560;DHT22;11958;50.836;4.438;2022-11-20T04:41:29;5.60;85.50
23560;DHT22;11958;50.836;4.438;2022-11-20T04:43:57;5.80;85.10
23560;DHT22;11958;50.836;4.438;2022-11-20T04:46:25;6.10;84.30
23560;DHT22;11958;50.836;4.438;2022-11-20T04:48:52;5.90;83.90
23560;DHT22;11958;50.836;4.438;2022-11-20T04:51:18;5.50;84.90
23560;DHT22;11958;50.836;4.438;2022-11-20T04:53:43;5.70;85.00
23560;DHT22;11958;50.836;4.438;2022-11-20T04:56:30;5.40;85.70
23560;DHT22;11958;50.836;4.438;2022-11-20T04:59:31;5.60;85.90
23560;DHT22;11958;50.836;4.438;2022-11-20T06:06:30;6.00;85.80
23560;DHT22;11958;50.836;4.438;2022-11-20T06:09:15;5.70;86.90
23560;DHT22;11958;50.836;4.438;2022-11-20T06:11:48;6.20;86.00
23560;DHT22;11958;50.836;4.438;2022-11-20T06:17:17;6.30;85.80
23560;DHT22;11958;50.836;4.438;2022-11-20T06:23:22;5.80;86.30
23560;DHT22;11958;50.836;4.438;2022-11-20T06:29:17;5.90;87.80
23560;DHT22;11958;50.836;4.438;2022-11-20T06:31:58;5.60;87.70
23560;DHT22;11958;50.836;4.438;2022-11-20T06:54:45;5.90;86.80
23560;DHT22;11958;50.836;4.438;2022-11-20T06:57:11;6.10;86.80
23560;DHT22;11958;50.836;4.438;2022-11-20T06:59:36;6.00;87.30
23560;DHT22;11958;50.836;4.438;2022-11-20T07:02:02;5.90;87.50
23560;DHT22;11958;50.836;4.438;2022-11-20T07:04:28;6.20;87.10
23560;DHT22;11958;50.836;4.438;2022-11-20T07:06:53;6.20;86.70
23560;DHT22;11958;50.836;4.438;2022-11-20T07:09:19;6.00;87.30
23560;DHT22;11958;50.836;4.438;2022-11-20T07:11:44;6.10;86.90
23560;DHT22;11958;50.836;4.438;2022-11-20T07:14:10;5.90;87.40
23560;DHT22;11958;50.836;4.438;2022-11-20T07:16:36;5.80;87.90
23560;DHT22;11958;50.836;4.438;2022-11-20T07:19:01;6.30;87.50
23560;DHT22;11958;50.836;4.438;2022-11-20T07:21:27;6.40;86.60
23560;DHT22;11958;50.836;4.438;2022-11-20T07:23:52;6.00;87.60
23560;DHT22;11958;50.836;4.438;2022-11-20T07:26:18;6.10;87.00
23560;DHT22;11958;50.836;4.438;2022-11-20T07:28:45;6.00;87.60
23560;DHT22;11958;50.836;4.438;2022-11-20T07:31:10;6.10;88.20
23560;DHT22;11958;50.836;4.438;2022-11-20T07:33:38;6.30;88.00
23560;DHT22;11958;50.836;4.438;2022-11-20T07:36:04;6.20;88.10
23560;DHT22;11958;50.836;4.438;2022-11-20T07:38:30;6.30;87.80
23560;DHT22;11958;50.836;4.438;2022-11-20T07:40:56;6.40;87.50
23560;DHT22;11958;50.836;4.438;2022-11-20T07:43:30;6.20;87.90
23560;DHT22;11958;50.836;4.438;2022-11-20T07:45:57;6.40;87.90
23560;DHT22;11958;50.836;4.438;2022-11-20T07:48:23;6.30;88.00
23560;DHT22;11958;50.836;4.438;2022-11-20T07:50:52;6.50;87.90
23560;DHT22;11958;50.836;4.438;2022-11-20T07:53:18;6.50;87.70
23560;DHT22;11958;50.836;4.438;2022-11-20T07:55:46;6.40;87.90
23560;DHT22;11958;50.836;4.438;2022-11-20T07:58:12;6.70;87.40
23560;DHT22;11958;50.836;4.438;2022-11-20T08:00:37;6.50;87.70
23560;DHT22;11958;50.836;4.438;2022-11-20T08:03:04;6.40;87.90
23560;DHT22;11958;50.836;4.438;2022-11-20T08:05:30;6.50;88.30
23560;DHT22;11958;50.836;4.438;2022-11-20T08:08:05;6.80;87.60
23560;DHT22;11958;50.836;4.438;2022-11-20T08:10:32;6.70;88.00
23560;DHT22;11958;50.836;4.438;2022-11-20T08:12:57;6.90;87.00
23560;DHT22;11958;50.836;4.438;2022-11-20T08:15:48;6.40;87.70
23560;DHT22;11958;50.836;4.438;2022-11-20T08:18:15;6.60;88.80
23560;DHT22;11958;50.836;4.438;2022-11-20T08:20:41;6.40;88.90
23560;DHT22;11958;50.836;4.438;2022-11-20T08:23:07;6.50;89.10
23560;DHT22;11958;50.836;4.438;2022-11-20T08:25:35;6.80;88.80
23560;DHT22;11958;50.836;4.438;2022-11-20T08:28:05;6.90;88.10
23560;DHT22;11958;50.836;4.438;2022-11-20T08:30:31;7.00;88.50
23560;DHT22;11958;50.836;4.438;2022-11-20T08:33:02;7.40;87.40
23560;DHT22;11958;50.836;4.438;2022-11-20T08:35:28;7.30;87.00
23560;DHT22;11958;50.836;4.438;2022-11-20T08:37:54;7.20;87.40
23560;DHT22;11958;50.836;4.438;2022-11-20T08:40:19;7.00;88.20
23560;DHT22;11958;50.836;4.438;2022-11-20T08:42:49;7.00;88.50
23560;DHT22;11958;50.836;4.438;2022-11-20T08:45:16;7.00;88.60
23560;DHT22;11958;50.836;4.438;2022-11-20T08:47:43;6.90;89.20
23560;DHT22;11958;50.836;4.438;2022-11-20T08:50:10;7.10;89.00
23560;DHT22;11958;50.836;4.438;2022-11-20T08:52:36;7.50;88.70
23560;DHT22;11958;50.836;4.438;2022-11-20T08:55:03;7.40;87.40
23560;DHT22;11958;50.836;4.438;2022-11-20T08:57:31;7.40;87.40
23560;DHT22;11958;50.836;4.438;2022-11-20T08:59:57;7.40;88.20
23560;DHT22;11958;50.836;4.438;2022-11-20T09:02:23;7.50;87.80
23560;DHT22;11958;50.836;4.438;2022-11-20T09:04:48;7.20;88.40
23560;DHT22;11958;50.836;4.438;2022-11-20T09:07:14;7.50;89.10
23560;DHT22;11958;50.836;4.438;2022-11-20T09:09:40;7.70;88.70
23560;DHT22;11958;50.836;4.438;2022-11-20T09:12:05;7.60;88.60
23560;DHT22;11958;50.836;4.438;2022-11-20T09:14:31;7.70;89.00
23560;DHT22;11958;50.836;4.438;2022-11-20T09:16:57;7.70;88.80
23560;DHT22;11958;50.836;4.438;2022-11-20T09:19:24;7.70;88.50
23560;DHT22;11958;50.836;4.438;2022-11-20T09:22:02;8.00;88.80
23560;DHT22;11958;50.836;4.438;2022-11-20T09:24:28;8.20;87.90
23560;DHT22;11958;50.836;4.438;2022-11-20T09:26:53;8.00;87.70
23560;DHT22;11958;50.836;4.438;2022-11-20T09:29:19;8.10;87.50
23560;DHT22;11958;50.836;4.438;2022-11-20T09:31:44;7.90;88.10
23560;DHT22;11958;50.836;4.438;2022-11-20T09:34:10;7.90;88.60
23560;DHT22;11958;50.836;4.438;2022-11-20T09:36:36;8.00;88.70
23560;DHT22;11958;50.836;4.438;2022-11-20T09:39:02;7.90;88.60
23560;DHT22;11958;50.836;4.438;2022-11-20T09:41:44;8.10;89.30
23560;DHT22;11958;50.836;4.438;2022-11-20T09:46:55;8.40;88.70
23560;DHT22;11958;50.836;4.438;2022-11-20T09:49:40;8.60;88.00
23560;DHT22;11958;50.836;4.438;2022-11-20T09:52:19;8.60;87.50
23560;DHT22;11958;50.836;4.438;2022-11-20T09:54:46;8.60;87.60
23560;DHT22;11958;50.836;4.438;2022-11-20T09:57:19;8.30;88.10
23560;DHT22;11958;50.836;4.438;2022-11-20T09:59:51;8.50;88.70
23560;DHT22;11958;50.836;4.438;2022-11-20T10:02:28;8.60;88.00
23560;DHT22;11958;50.836;4.438;2022-11-20T10:05:04;8.70;88.10
23560;DHT22;11958;50.836;4.438;2022-11-20T10:09:58;8.70;87.80
23560;DHT22;11958;50.836;4.438;2022-11-20T10:12:39;8.70;87.20
23560;DHT22;11958;50.836;4.438;2022-11-20T10:18:02;8.80;88.20
23560;DHT22;11958;50.836;4.438;2022-11-20T10:26:47;9.20;87.20
23560;DHT22;11958;50.836;4.438;2022-11-20T10:29:19;9.50;86.80
23560;DHT22;11958;50.836;4.438;2022-11-20T10:32:11;9.40;86.60
23560;DHT22;11958;50.836;4.438;2022-11-20T10:35:22;9.40;86.80
23560;DHT22;11958;50.836;4.438;2022-11-20T10:37:56;9.80;84.80
23560;DHT22;11958;50.836;4.438;2022-11-20T10:40:38;9.70;86.10
23560;DHT22;11958;50.836;4.438;2022-11-20T10:45:45;9.30;85.80
23560;DHT22;11958;50.836;4.438;2022-11-20T10:48:24;9.20;86.20
23560;DHT22;11958;50.836;4.438;2022-11-20T11:00:00;9.50;85.50
23560;DHT22;11958;50.836;4.438;2022-11-20T11:02:51;9.50;85.30
23560;DHT22;11958;50.836;4.438;2022-11-20T11:05:43;9.30;85.50
23560;DHT22;11958;50.836;4.438;2022-11-20T11:08:17;9.40;86.30
23560;DHT22;11958;50.836;4.438;2022-11-20T11:10:52;9.40;86.00
23560;DHT22;11958;50.836;4.438;2022-11-20T11:13:23;9.40;85.70
23560;DHT22;11958;50.836;4.438;2022-11-20T11:15:50;9.70;84.00
23560;DHT22;11958;50.836;4.438;2022-11-20T11:18:29;9.60;84.20
23560;DHT22;11958;50.836;4.438;2022-11-20T11:21:01;9.50;83.80
23560;DHT22;11958;50.836;4.438;2022-11-20T11:23:36;9.50;84.40
23560;DHT22;11958;50.836;4.438;2022-11-20T11:26:21;9.50;84.60
23560;DHT22;11958;50.836;4.438;2022-11-20T11:28:59;9.30;84.20
23560;DHT22;11958;50.836;4.438;2022-11-20T11:31:30;9.40;83.50
23560;DHT22;11958;50.836;4.438;2022-11-20T11:34:13;9.50;83.70
23560;DHT22;11958;50.836;4.438;2022-11-20T11:36:39;9.60;84.90
23560;DHT22;11958;50.836;4.438;2022-11-20T11:39:11;9.50;84.20
23560;DHT22;11958;50.836;4.438;2022-11-20T11:41:39;9.80;83.10
23560;DHT22;11958;50.836;4.438;2022-11-20T11:44:17;9.70;84.70
23560;DHT22;11958;50.836;4.438;2022-11-20T11:47:04;9.60;84.40
23560;DHT22;11958;50.836;4.438;2022-11-20T11:49:30;9.80;84.40
23560;DHT22;11958;50.836;4.438;2022-11-20T11:52:12;9.80;83.80
23560;DHT22;11958;50.836;4.438;2022-11-20T11:57:31;9.90;83.90
23560;DHT22;11958;50.836;4.438;2022-11-20T12:00:09;9.60;84.50
23560;DHT22;11958;50.836;4.438;2022-11-20T12:02:57;9.50;85.00
23560;DHT22;11958;50.836;4.438;2022-11-20T12:05:49;9.60;85.20
23560;DHT22;11958;50.836;4.438;2022-11-20T12:08:51;9.30;84.80
23560;DHT22;11958;50.836;4.438;2022-11-20T12:16:37;9.50;85.10
23560;DHT22;11958;50.836;4.438;2022-11-20T12:19:11;9.30;86.00
23560;DHT22;11958;50.836;4.438;2022-11-20T12:24:41;9.20;86.50
23560;DHT22;11958;50.836;4.438;2022-11-20T12:30:10;9.20;87.60
23560;DHT22;11958;50.836;4.438;2022-11-20T12:50:36;9.10;88.10
23560;DHT22;11958;50.836;4.438;2022-11-20T13:07:08;9.00;88.20
23560;DHT22;11958;50.836;4.438;2022-11-20T13:09:39;9.10;88.80
23560;DHT22;11958;50.836;4.438;2022-11-20T13:12:06;9.30;87.70
23560;DHT22;11958;50.836;4.438;2022-11-20T13:14:45;9.30;88.10
23560;DHT22;11958;50.836;4.438;2022-11-20T13:17:29;9.10;88.50
23560;DHT22;11958;50.836;4.438;2022-11-20T13:19:57;9.00;89.00
23560;DHT22;11958;50.836;4.438;2022-11-20T13:25:09;9.10;88.90
23560;DHT22;11958;50.836;4.438;2022-11-20T13:27:47;9.20;89.10
23560;DHT22;11958;50.836;4.438;2022-11-20T13:30:20;9.10;89.30
23560;DHT22;11958;50.836;4.438;2022-11-20T13:35:35;8.80;89.70
23560;DHT22;11958;50.836;4.438;2022-11-20T13:38:06;8.70;90.10
23560;DHT22;11958;50.836;4.438;2022-11-20T13:40:33;8.80;90.50
23560;DHT22;11958;50.836;4.438;2022-11-20T13:46:03;8.60;90.80
23560;DHT22;11958;50.836;4.438;2022-11-20T13:48:32;8.80;90.00
23560;DHT22;11958;50.836;4.438;2022-11-20T13:59:48;8.80;91.10
23560;DHT22;11958;50.836;4.438;2022-11-20T14:02:19;9.00;90.90
23560;DHT22;11958;50.836;4.438;2022-11-20T14:04:50;8.70;90.50
23560;DHT22;11958;50.836;4.438;2022-11-20T14:07:17;8.70;90.60
23560;DHT22;11958;50.836;4.438;2022-11-20T14:09:56;8.70;91.50
23560;DHT22;11958;50.836;4.438;2022-11-20T14:12:28;8.50;91.50
23560;DHT22;11958;50.836;4.438;2022-11-20T14:14:54;8.50;91.60
23560;DHT22;11958;50.836;4.438;2022-11-20T14:17:23;8.60;91.60
23560;DHT22;11958;50.836;4.438;2022-11-20T14:19:51;8.70;91.40
23560;DHT22;11958;50.836;4.438;2022-11-20T14:22:27;8.70;90.50
23560;DHT22;11958;50.836;4.438;2022-11-20T14:27:39;8.50;91.50
23560;DHT22;11958;50.836;4.438;2022-11-20T14:30:06;8.40;92.10
23560;DHT22;11958;50.836;4.438;2022-11-20T14:32:37;8.30;92.70
23560;DHT22;11958;50.836;4.438;2022-11-20T14:35:08;8.30;92.30
23560;DHT22;11958;50.836;4.438;2022-11-20T14:37:37;8.60;91.70
23560;DHT22;11958;50.836;4.438;2022-11-20T14:40:51;8.50;92.30
23560;DHT22;11958;50.836;4.438;2022-11-20T14:42:52;8.40;92.00
23560;DHT22;11958;50.836;4.438;2022-11-20T14:45:18;8.40;92.20
23560;DHT22;11958;50.836;4.438;2022-11-20T14:47:45;8.30;92.60
23560;DHT22;11958;50.836;4.438;2022-11-20T14:50:19;8.30;92.90
23560;DHT22;11958;50.836;4.438;2022-11-20T14:52:56;8.50;93.00
23560;DHT22;11958;50.836;4.438;2022-11-20T14:55:40;8.40;93.30
23560;DHT22;11958;50.836;4.438;2022-11-20T14:58:21;8.30;93.50
23560;DHT22;11958;50.836;4.438;2022-11-20T15:01:01;8.40;93.90
23560;DHT22;11958;50.836;4.438;2022-11-20T15:03:38;8.40;93.60
23560;DHT22;11958;50.836;4.438;2022-11-20T15:06:06;8.50;93.40
23560;DHT22;11958;50.836;4.438;2022-11-20T15:08:32;8.50;93.00
23560;DHT22;11958;50.836;4.438;2022-11-20T15:10:58;8.40;93.00
23560;DHT22;11958;50.836;4.438;2022-11-20T15:13:31;8.50;92.80
23560;DHT22;11958;50.836;4.438;2022-11-20T15:15:59;8.50;93.80
23560;DHT22;11958;50.836;4.438;2022-11-20T15:18:36;8.60;92.80
23560;DHT22;11958;50.836;4.438;2022-11-20T15:21:06;8.70;93.80
23560;DHT22;11958;50.836;4.438;2022-11-20T15:23:35;8.70;93.30
23560;DHT22;11958;50.836;4.438;2022-11-20T15:26:00;8.60;93.60
23560;DHT22;11958;50.836;4.438;2022-11-20T15:28:30;8.50;94.00
23560;DHT22;11958;50.836;4.438;2022-11-20T15:30:56;8.70;93.70
23560;DHT22;11958;50.836;4.438;2022-11-20T15:33:22;8.50;93.50
23560;DHT22;11958;50.836;4.438;2022-11-20T15:35:47;8.50;93.60
23560;DHT22;11958;50.836;4.438;2022-11-20T15:38:13;8.50;93.50
23560;DHT22;11958;50.836;4.438;2022-11-20T15:40:39;8.60;93.70
23560;DHT22;11958;50.836;4.438;2022-11-20T15:43:05;8.70;93.00
23560;DHT22;11958;50.836;4.438;2022-11-20T15:45:44;8.70;93.70
23560;DHT22;11958;50.836;4.438;2022-11-20T15:48:13;8.90;93.40
23560;DHT22;11958;50.836;4.438;2022-11-20T15:53:17;9.00;92.90
23560;DHT22;11958;50.836;4.438;2022-11-20T15:55:42;9.00;92.90
23560;DHT22;11958;50.836;4.438;2022-11-20T15:58:08;9.00;92.40
23560;DHT22;11958;50.836;4.438;2022-11-20T16:00:35;8.90;92.60
23560;DHT22;11958;50.836;4.438;2022-11-20T16:03:00;9.00;92.40
23560;DHT22;11958;50.836;4.438;2022-11-20T16:05:29;9.00;92.50
23560;DHT22;11958;50.836;4.438;2022-11-20T16:07:55;9.00;92.30
23560;DHT22;11958;50.836;4.438;2022-11-20T16:10:22;8.80;93.00
23560;DHT22;11958;50.836;4.438;2022-11-20T16:12:47;8.90;92.10
23560;DHT22;11958;50.836;4.438;2022-11-20T16:15:32;9.00;92.20
23560;DHT22;11958;50.836;4.438;2022-11-20T16:18:20;9.00;92.00
23560;DHT22;11958;50.836;4.438;2022-11-20T16:20:49;9.10;91.70
23560;DHT22;11958;50.836;4.438;2022-11-20T16:23:15;9.00;91.90
23560;DHT22;11958;50.836;4.438;2022-11-20T16:25:41;9.00;91.90
23560;DHT22;11958;50.836;4.438;2022-11-20T16:28:08;8.90;91.50
23560;DHT22;11958;50.836;4.438;2022-11-20T16:30:34;9.00;91.30
23560;DHT22;11958;50.836;4.438;2022-11-20T16:33:00;9.00;91.30
23560;DHT22;11958;50.836;4.438;2022-11-20T16:35:27;9.00;91.00
23560;DHT22;11958;50.836;4.438;2022-11-20T16:37:54;8.90;91.10
23560;DHT22;11958;50.836;4.438;2022-11-20T16:40:20;8.90;91.00
23560;DHT22;11958;50.836;4.438;2022-11-20T16:42:45;9.00;91.20
23560;DHT22;11958;50.836;4.438;2022-11-20T16:45:11;9.00;91.50
23560;DHT22;11958;50.836;4.438;2022-11-20T16:47:37;8.90;91.90
23560;DHT22;11958;50.836;4.438;2022-11-20T16:50:04;8.80;91.80
23560;DHT22;11958;50.836;4.438;2022-11-20T16:52:30;8.80;91.90
23560;DHT22;11958;50.836;4.438;2022-11-20T16:54:57;9.00;90.80
23560;DHT22;11958;50.836;4.438;2022-11-20T16:57:23;9.10;91.20
23560;DHT22;11958;50.836;4.438;2022-11-20T16:59:48;9.20;90.30
23560;DHT22;11958;50.836;4.438;2022-11-20T17:02:15;8.90;91.30
23560;DHT22;11958;50.836;4.438;2022-11-20T17:04:40;9.00;91.20
23560;DHT22;11958;50.836;4.438;2022-11-20T17:07:07;9.00;91.50
23560;DHT22;11958;50.836;4.438;2022-11-20T17:09:33;9.10;91.00
23560;DHT22;11958;50.836;4.438;2022-11-20T17:11:59;9.10;91.70
23560;DHT22;11958;50.836;4.438;2022-11-20T17:14:25;9.00;91.40
23560;DHT22;11958;50.836;4.438;2022-11-20T17:16:51;8.90;92.20
23560;DHT22;11958;50.836;4.438;2022-11-20T17:19:16;8.90;92.60
23560;DHT22;11958;50.836;4.438;2022-11-20T17:21:42;8.90;93.10
23560;DHT22;11958;50.836;4.438;2022-11-20T17:24:11;8.90;93.40
23560;DHT22;11958;50.836;4.438;2022-11-20T17:26:39;8.90;93.70
23560;DHT22;11958;50.836;4.438;2022-11-20T17:29:11;9.00;93.60
23560;DHT22;11958;50.836;4.438;2022-11-20T17:31:38;9.00;93.70
23560;DHT22;11958;50.836;4.438;2022-11-20T17:34:09;9.00;93.50
23560;DHT22;11958;50.836;4.438;2022-11-20T17:36:35;8.90;93.10
23560;DHT22;11958;50.836;4.438;2022-11-20T17:39:01;8.90;93.60
23560;DHT22;11958;50.836;4.438;2022-11-20T17:41:28;9.00;92.50
23560;DHT22;11958;50.836;4.438;2022-11-20T17:43:58;9.00;91.80
23560;DHT22;11958;50.836;4.438;2022-11-20T17:46:26;8.80;91.60
23560;DHT22;11958;50.836;4.438;2022-11-20T17:48:53;8.60;91.20
23560;DHT22;11958;50.836;4.438;2022-11-20T17:51:24;8.40;92.00
23560;DHT22;11958;50.836;4.438;2022-11-20T17:53:55;8.40;93.00
23560;DHT22;11958;50.836;4.438;2022-11-20T17:56:22;8.50;93.70
23560;DHT22;11958;50.836;4.438;2022-11-20T17:59:11;8.40;94.00
23560;DHT22;11958;50.836;4.438;2022-11-20T18:01:37;8.40;92.50
23560;DHT22;11958;50.836;4.438;2022-11-20T18:04:04;8.10;92.10
23560;DHT22;11958;50.836;4.438;2022-11-20T18:06:30;8.00;92.00
23560;DHT22;11958;50.836;4.438;2022-11-20T18:09:00;7.80;92.10
23560;DHT22;11958;50.836;4.438;2022-11-20T18:11:32;7.80;92.40
23560;DHT22;11958;50.836;4.438;2022-11-20T18:13:59;7.70;94.00
23560;DHT22;11958;50.836;4.438;2022-11-20T18:16:55;8.00;93.30
23560;DHT22;11958;50.836;4.438;2022-11-20T18:19:23;7.80;94.80
23560;DHT22;11958;50.836;4.438;2022-11-20T18:21:50;7.70;95.00
23560;DHT22;11958;50.836;4.438;2022-11-20T18:24:16;7.90;95.70
23560;DHT22;11958;50.836;4.438;2022-11-20T18:26:42;8.00;95.50
23560;DHT22;11958;50.836;4.438;2022-11-20T18:29:07;8.10;94.70
23560;DHT22;11958;50.836;4.438;2022-11-20T18:31:33;8.10;95.00
23560;DHT22;11958;50.836;4.438;2022-11-20T18:33:59;8.00;94.70
23560;DHT22;11958;50.836;4.438;2022-11-20T18:36:27;8.20;94.50
23560;DHT22;11958;50.836;4.438;2022-11-20T18:38:55;8.40;94.50
23560;DHT22;11958;50.836;4.438;2022-11-20T18:41:23;8.20;94.60
23560;DHT22;11958;50.836;4.438;2022-11-20T18:44:14;8.20;95.40
23560;DHT22;11958;50.836;4.438;2022-11-20T18:46:58;8.20;95.30
23560;DHT22;11958;50.836;4.438;2022-11-20T18:49:24;8.30;95.90
23560;DHT22;11958;50.836;4.438;2022-11-20T18:51:50;8.20;95.80
23560;DHT22;11958;50.836;4.438;2022-11-20T18:54:16;8.30;95.70
23560;DHT22;11958;50.836;4.438;2022-11-20T18:56:41;8.40;96.20
23560;DHT22;11958;50.836;4.438;2022-11-20T18:59:08;8.50;95.80
23560;DHT22;11958;50.836;4.438;2022-11-20T19:01:34;8.60;95.60
23560;DHT22;11958;50.836;4.438;2022-11-20T19:04:00;8.50;95.80
23560;DHT22;11958;50.836;4.438;2022-11-20T19:06:30;8.60;95.40
23560;DHT22;11958;50.836;4.438;2022-11-20T19:08:55;8.50;95.60
23560;DHT22;11958;50.836;4.438;2022-11-20T19:11:21;8.50;95.50
23560;DHT22;11958;50.836;4.438;2022-11-20T19:13:47;8.50;95.40
23560;DHT22;11958;50.836;4.438;2022-11-20T19:16:17;8.30;95.40
23560;DHT22;11958;50.836;4.438;2022-11-20T19:18:44;8.30;95.00
23560;DHT22;11958;50.836;4.438;2022-11-20T19:21:13;8.20;95.80
23560;DHT22;11958;50.836;4.438;2022-11-20T19:23:39;8.20;96.40
23560;DHT22;11958;50.836;4.438;2022-11-20T19:26:05;8.20;95.70
23560;DHT22;11958;50.836;4.438;2022-11-20T19:28:34;8.20;96.60
23560;DHT22;11958;50.836;4.438;2022-11-20T19:31:08;8.20;95.90
23560;DHT22;11958;50.836;4.438;2022-11-20T19:33:34;8.00;96.20
23560;DHT22;11958;50.836;4.438;2022-11-20T19:36:15;7.90;95.70
23560;DHT22;11958;50.836;4.438;2022-11-20T19:38:42;7.80;96.10
23560;DHT22;11958;50.836;4.438;2022-11-20T19:41:08;7.70;96.20
23560;DHT22;11958;50.836;4.438;2022-11-20T19:43:34;7.80;96.50
23560;DHT22;11958;50.836;4.438;2022-11-20T19:46:00;8.10;96.70
23560;DHT22;11958;50.836;4.438;2022-11-20T19:48:29;8.20;95.20
23560;DHT22;11958;50.836;4.438;2022-11-20T19:51:09;7.90;95.70
23560;DHT22;11958;50.836;4.438;2022-11-20T19:53:35;8.00;95.80
23560;DHT22;11958;50.836;4.438;2022-11-20T19:56:01;8.10;95.50
23560;DHT22;11958;50.836;4.438;2022-11-20T19:58:27;7.90;95.40
23560;DHT22;11958;50.836;4.438;2022-11-20T20:00:53;7.80;95.30
23560;DHT22;11958;50.836;4.438;2022-11-20T20:03:19;7.80;95.20
23560;DHT22;11958;50.836;4.438;2022-11-20T20:05:45;7.80;95.20
23560;DHT22;11958;50.836;4.438;2022-11-20T20:08:11;7.70;95.20
23560;DHT22;11958;50.836;4.438;2022-11-20T20:10:37;7.60;95.40
23560;DHT22;11958;50.836;4.438;2022-11-20T20:13:03;7.70;95.20
23560;DHT22;11958;50.836;4.438;2022-11-20T20:15:29;7.90;93.40
23560;DHT22;11958;50.836;4.438;2022-11-20T20:17:55;7.70;93.40
23560;DHT22;11958;50.836;4.438;2022-11-20T20:20:20;7.60;94.00
23560;DHT22;11958;50.836;4.438;2022-11-20T20:22:46;7.50;94.10
23560;DHT22;11958;50.836;4.438;2022-11-20T20:25:12;7.50;94.60
23560;DHT22;11958;50.836;4.438;2022-11-20T20:27:38;7.50;94.10
23560;DHT22;11958;50.836;4.438;2022-11-20T20:30:04;7.40;94.10
23560;DHT22;11958;50.836;4.438;2022-11-20T20:32:31;7.10;94.60
23560;DHT22;11958;50.836;4.438;2022-11-20T20:34:57;7.40;94.50
23560;DHT22;11958;50.836;4.438;2022-11-20T20:37:23;7.40;93.40
23560;DHT22;11958;50.836;4.438;2022-11-20T20:39:49;7.60;93.00
23560;DHT22;11958;50.836;4.438;2022-11-20T20:42:14;7.40;92.80
23560;DHT22;11958;50.836;4.438;2022-11-20T20:44:41;7.20;93.30
23560;DHT22;11958;50.836;4.438;2022-11-20T20:47:32;7.40;93.60
23560;DHT22;11958;50.836;4.438;2022-11-20T20:49:58;7.50;93.50
23560;DHT22;11958;50.836;4.438;2022-11-20T20:52:24;7.10;93.40
23560;DHT22;11958;50.836;4.438;2022-11-20T20:54:55;7.10;93.60
23560;DHT22;11958;50.836;4.438;2022-11-20T20:57:22;7.00;93.80
23560;DHT22;11958;50.836;4.438;2022-11-20T20:59:50;7.30;94.00
23560;DHT22;11958;50.836;4.438;2022-11-20T21:02:17;7.30;93.30
23560;DHT22;11958;50.836;4.438;2022-11-20T21:04:46;7.30;93.10
23560;DHT22;11958;50.836;4.438;2022-11-20T21:07:12;7.00;92.40
23560;DHT22;11958;50.836;4.438;2022-11-20T21:09:38;7.30;92.60
23560;DHT22;11958;50.836;4.438;2022-11-20T21:12:04;7.30;92.80
23560;DHT22;11958;50.836;4.438;2022-11-20T21:14:29;7.40;92.30
23560;DHT22;11958;50.836;4.438;2022-11-20T21:16:55;7.30;92.50
23560;DHT22;11958;50.836;4.438;2022-11-20T21:19:20;7.50;92.00
23560;DHT22;11958;50.836;4.438;2022-11-20T21:21:46;7.30;92.10